Kelley, IA (50134)

2:45 PM CDT on August 24, 2016 (GMT -0500)
Benton Street | | Change Station

Elev 1001 ft 41.88 °N, 93.68 °W | Updated 6 seconds ago

Overcast
Overcast
78.2 °F
Feels Like 81 °F
N
0.0
Wind Variable Wind from West
Gusts 3.0 mph

Today
High -- | Low -- °F
--% Chance of Precip.
Yesterday
High -- | Low -- °F
Precip. -- in
Pressure 29.95 in
Visibility 10.0 miles
Clouds Mostly Cloudy 1600 ft
Overcast 2600 ft
Heat Index 81 °F
Dew Point 78 °F
Humidity 100%
Rainfall 0.11 in
Snow Depth Not available.
6:32 AM 8:00 PM
Waning Gibbous, 54% visible
METAR KAMW 241853Z AUTO 25005KT 10SM BKN016 OVC026 26/23 A2998 RMK AO2 SLP141 T02560228
Pressure 29.95 in
Visibility 10.0 miles
Clouds Mostly Cloudy 1600 ft
Overcast 2600 ft
Heat Index 81 °F
Dew Point 78 °F
Humidity 100%
Rainfall 0.11 in
Snow Depth Not available.
6:32 AM 8:00 PM
Waning Gibbous, 54% visible
METAR KAMW 241853Z AUTO 25005KT 10SM BKN016 OVC026 26/23 A2998 RMK AO2 SLP141 T02560228

10-Day Weather Forecast

Almanac

Astronomy

Aug. 24, 2016 Rise Set
Actual Time
Civil Twilight
Nautical Twilight
Astronomical Twilight
Moon
Length of Visible Light
Length of Day
Tomorrow will be .
, % of the Moon is Illuminated

Today's Extremes

State Highs State Lows

Community

WunderPhotos

Upload Photos

1,934,690 photos uploaded!

WunderBlog® & News

Nearby

Air Quality

  Air Quality AQ Index Pollutant
Not available.

Snow Depth

Station Depth Elevation

Earthquake Activity

City Distance Mag. Time & Date
Minimum magnitude displayed is 2.5.

Coastal Water Temperatures

Place Temperature

Stations

Nearby Weather Stations

Station Location Temp. Windchill Dew Point Humidity Wind Precip. Elev Updated Type
                   

Watches & Warnings

There are currently no watches in effect.